Time;durP1;ratioP1;P1;durP2;ratioP2;P2;SDS_P1;SDS_P2;PMS_P1;PMS_P2;Temp;Humidity;BMP_temperature;BMP_pressure;BME280_temperature;BME280_humidity;BME280_pressure;Samples;Min_cycle;Max_cycle;Signal;HPM_P1;HPM_P2
2022/06/22 00:02:05;;;;;;;6.32;1.70;;;;;;;-141.50;100.00;63355.56;5021060;28;20494;-85
2022/06/22 00:04:46;;;;;;;4.65;1.80;;;;;;;-141.50;100.00;63355.56;5004741;28;20058;-85
2022/06/22 00:07:33;;;;;;;7.90;1.50;;;;;;;-141.50;100.00;63355.56;5002392;28;20046;-84
2022/06/22 00:10:14;;;;;;;4.63;1.73;;;;;;;-141.50;100.00;63355.56;5002736;28;20077;-84
2022/06/22 00:12:41;;;;;;;6.32;1.80;;;;;;;-141.50;100.00;63355.56;5019981;28;20266;-84
2022/06/22 00:15:23;;;;;;;7.10;1.88;;;;;;;-141.50;100.00;63355.56;5020792;28;20061;-85
2022/06/22 00:17:50;;;;;;;3.25;1.40;;;;;;;-141.50;100.00;63355.56;5027092;28;20049;-85
2022/06/22 00:20:21;;;;;;;3.10;1.33;;;;;;;-141.50;100.00;63355.56;5028432;28;20050;-84
2022/06/22 00:22:52;;;;;;;5.32;1.60;;;;;;;-141.50;100.00;63355.56;5019521;28;20081;-85
2022/06/22 00:25:31;;;;;;;4.47;1.25;;;;;;;-141.50;100.00;63355.56;5019404;28;20072;-85
2022/06/22 00:28:31;;;;;;;5.05;1.52;;;;;;;-141.50;100.00;63355.56;5014253;28;20107;-84
2022/06/22 00:31:21;;;;;;;3.10;1.52;;;;;;;-141.50;100.00;63355.56;5014609;28;20281;-84
2022/06/22 00:34:09;;;;;;;5.38;1.67;;;;;;;-141.50;100.00;63355.56;5015456;28;20437;-84
2022/06/22 00:37:04;;;;;;;4.15;1.58;;;;;;;-141.50;100.00;63355.56;4998085;28;20053;-85
2022/06/22 00:39:37;;;;;;;3.03;1.58;;;;;;;-141.50;100.00;63355.56;5016274;28;20119;-85
2022/06/22 00:42:15;;;;;;;3.90;1.55;;;;;;;-141.50;100.00;63355.56;5020714;28;20074;-85
2022/06/22 00:44:44;;;;;;;5.07;1.50;;;;;;;-141.50;100.00;63355.56;5031900;28;20057;-84
2022/06/22 00:47:25;;;;;;;4.65;1.90;;;;;;;-141.50;100.00;63355.56;5029641;28;20049;-86
2022/06/22 00:49:59;;;;;;;6.63;1.80;;;;;;;-141.50;100.00;63355.56;5022022;28;20058;-85
2022/06/22 00:52:40;;;;;;;4.40;1.92;;;;;;;-141.50;100.00;63355.56;5021269;28;20058;-85
2022/06/22 00:55:23;;;;;;;5.70;1.90;;;;;;;-141.50;100.00;63355.56;5019889;28;20054;-85
2022/06/22 00:58:13;;;;;;;5.63;1.95;;;;;;;-141.50;100.00;63355.56;5023638;28;20096;-86
2022/06/22 01:00:54;;;;;;;4.55;2.38;;;;;;;-141.50;100.00;63355.56;5018812;28;20524;-85
2022/06/22 01:04:06;;;;;;;5.20;1.85;;;;;;;-141.50;100.00;63355.56;4995120;28;20051;-84
2022/06/22 01:06:52;;;;;;;5.25;2.10;;;;;;;-141.50;100.00;63355.56;5009244;28;20480;-84
2022/06/22 01:09:32;;;;;;;5.57;2.03;;;;;;;-141.50;100.00;63355.56;5016068;28;20050;-85
2022/06/22 01:12:17;;;;;;;3.85;1.85;;;;;;;-141.50;100.00;63355.56;5014275;28;20304;-84
2022/06/22 01:15:02;;;;;;;3.78;1.95;;;;;;;-141.50;100.00;63355.56;5013882;28;20085;-83
2022/06/22 01:17:40;;;;;;;5.65;2.13;;;;;;;-141.50;100.00;63355.56;5017974;28;20049;-84
2022/06/22 01:20:25;;;;;;;4.07;2.08;;;;;;;-141.50;100.00;63355.56;5018264;28;20050;-83
2022/06/22 01:23:22;;;;;;;6.40;2.40;;;;;;;-141.50;100.00;63355.56;5016125;28;20050;-83
2022/06/22 01:26:11;;;;;;;5.93;2.20;;;;;;;-141.50;100.00;63355.56;5012059;28;20069;-83
2022/06/22 01:28:40;;;;;;;3.33;2.00;;;;;;;-141.50;100.00;63355.56;5007857;28;20050;-85
2022/06/22 01:31:13;;;;;;;7.57;2.38;;;;;;;-141.50;100.00;63355.56;5016017;28;20045;-84
2022/06/22 01:33:48;;;;;;;4.20;2.22;;;;;;;-141.50;100.00;63355.56;5017338;28;20053;-83
2022/06/22 01:36:33;;;;;;;5.25;2.00;;;;;;;-141.50;100.00;63355.56;5019784;28;20049;-85
2022/06/22 01:39:02;;;;;;;6.30;2.30;;;;;;;-141.50;100.00;63355.56;5018887;28;20096;-85
2022/06/22 01:41:52;;;;;;;3.33;2.10;;;;;;;-141.50;100.00;63355.56;5013978;28;20045;-84
2022/06/22 01:44:29;;;;;;;4.07;2.30;;;;;;;-141.50;100.00;63355.56;5015463;28;20050;-83
2022/06/22 01:47:39;;;;;;;5.07;2.40;;;;;;;-141.50;100.00;63355.56;5017054;28;20081;-85
2022/06/22 01:50:08;;;;;;;6.15;2.35;;;;;;;-141.50;100.00;63355.56;4977754;28;20117;-84
2022/06/22 01:52:56;;;;;;;7.20;2.30;;;;;;;-141.50;100.00;63355.56;5017258;28;20104;-85
2022/06/22 01:55:29;;;;;;;5.40;2.53;;;;;;;-141.50;100.00;63355.56;5027177;28;20150;-85
2022/06/22 01:58:19;;;;;;;4.68;2.50;;;;;;;-141.50;100.00;63355.56;5030951;28;20038;-84
2022/06/22 02:00:55;;;;;;;5.18;2.35;;;;;;;-141.50;100.00;63355.56;5033569;28;20038;-84
2022/06/22 02:03:26;;;;;;;5.10;2.28;;;;;;;-141.50;100.00;63355.56;5032291;28;20049;-85
2022/06/22 02:06:00;;;;;;;5.30;2.35;;;;;;;-141.50;100.00;63355.56;5032208;28;20041;-83
2022/06/22 02:08:38;;;;;;;7.55;2.42;;;;;;;-141.50;100.00;63355.56;5034016;28;20033;-86
2022/06/22 02:11:13;;;;;;;6.50;2.50;;;;;;;-141.50;100.00;63355.56;5033656;28;20041;-85
2022/06/22 02:14:08;;;;;;;5.53;2.33;;;;;;;-141.50;100.00;63355.56;5033306;28;20049;-83
2022/06/22 02:16:47;;;;;;;4.35;2.20;;;;;;;-141.50;100.00;63355.56;5026255;28;20050;-83
2022/06/22 02:19:16;;;;;;;8.70;2.50;;;;;;;-141.50;100.00;63355.56;5028988;28;20571;-83
2022/06/22 02:21:44;;;;;;;6.25;2.28;;;;;;;-141.50;100.00;63355.56;5031906;28;20073;-83
2022/06/22 02:24:41;;;;;;;5.03;2.50;;;;;;;-141.50;100.00;63355.56;5016233;28;20049;-82
2022/06/22 02:27:29;;;;;;;6.07;2.30;;;;;;;-141.50;100.00;63355.56;5031092;28;20065;-83
2022/06/22 02:29:59;;;;;;;6.20;2.33;;;;;;;-141.50;100.00;63355.56;5039570;28;20104;-86
2022/06/22 02:32:45;;;;;;;7.30;2.60;;;;;;;-141.50;100.00;63355.56;5043985;28;20046;-84
2022/06/22 02:35:14;;;;;;;3.75;2.20;;;;;;;-141.50;100.00;63355.56;5025235;28;20073;-85
2022/06/22 02:37:47;;;;;;;7.82;2.58;;;;;;;-141.50;100.00;63355.56;5043086;28;20045;-86
2022/06/22 02:40:24;;;;;;;4.20;2.40;;;;;;;-141.50;100.00;63355.56;5037711;28;20049;-86
2022/06/22 02:45:43;;;;;;;5.65;3.10;;;;;;;-141.50;100.00;63355.56;5036987;28;20442;-85
2022/06/22 02:48:12;;;;;;;7.40;3.17;;;;;;;-141.50;100.00;63355.56;5020029;28;20053;-83
2022/06/22 02:50:46;;;;;;;10.32;3.47;;;;;;;-141.50;100.00;63355.56;5018196;28;20121;-86
2022/06/22 02:53:27;;;;;;;5.78;3.10;;;;;;;-141.50;100.00;63355.56;5016457;28;20054;-85
2022/06/22 02:55:54;;;;;;;7.30;3.45;;;;;;;-141.50;100.00;63355.56;5017760;28;20502;-85
2022/06/22 02:58:33;;;;;;;9.93;4.15;;;;;;;-141.50;100.00;63355.56;5017852;28;20065;-84
2022/06/22 03:01:04;;;;;;;10.15;3.78;;;;;;;-141.50;100.00;63355.56;5016582;28;20046;-85
2022/06/22 03:03:34;;;;;;;7.70;3.72;;;;;;;-141.50;100.00;63355.56;5019190;28;20060;-85
2022/06/22 03:06:01;;;;;;;6.97;3.67;;;;;;;-141.50;100.00;63355.56;5021708;28;20056;-83
2022/06/22 03:08:29;;;;;;;6.95;3.30;;;;;;;-141.50;100.00;63355.56;5021126;28;20132;-85
2022/06/22 03:11:08;;;;;;;6.25;3.20;;;;;;;-141.50;100.00;63355.56;5020418;28;20046;-85
2022/06/22 03:14:04;;;;;;;6.88;3.55;;;;;;;-141.50;100.00;63355.56;5020261;28;20062;-85
2022/06/22 03:16:35;;;;;;;7.13;3.97;;;;;;;-141.50;100.00;63355.56;5009217;28;20088;-86
2022/06/22 03:19:19;;;;;;;8.45;4.57;;;;;;;-141.50;100.00;63355.56;5023503;28;20050;-82
2022/06/22 03:21:46;;;;;;;7.30;3.95;;;;;;;-141.50;100.00;63355.56;5033178;28;20146;-85
2022/06/22 03:24:38;;;;;;;5.45;3.80;;;;;;;-141.50;100.00;63355.56;5034589;28;20053;-84
2022/06/22 03:27:20;;;;;;;7.38;4.22;;;;;;;-141.50;100.00;63355.56;5018444;28;20481;-83
2022/06/22 03:29:54;;;;;;;6.55;3.67;;;;;;;-141.50;100.00;63355.56;5019062;28;20133;-84
2022/06/22 03:32:25;;;;;;;6.07;3.90;;;;;;;-141.50;100.00;63355.56;5037721;28;20048;-84
2022/06/22 03:35:14;;;;;;;8.32;3.85;;;;;;;-141.50;100.00;63355.56;5022108;28;20118;-85
2022/06/22 03:37:51;;;;;;;7.15;3.65;;;;;;;-141.50;100.00;63355.56;5027564;28;20049;-85
2022/06/22 03:40:30;;;;;;;6.18;3.97;;;;;;;-141.50;100.00;63355.56;5029301;28;20046;-86
2022/06/22 03:43:06;;;;;;;7.88;3.50;;;;;;;-141.50;100.00;63355.56;5023233;28;20068;-85
2022/06/22 03:45:43;;;;;;;6.65;3.47;;;;;;;-141.50;100.00;63355.56;5011562;28;20076;-85
2022/06/22 03:48:19;;;;;;;6.82;3.83;;;;;;;-141.50;100.00;63355.56;5027784;28;20081;-85
2022/06/22 03:50:58;;;;;;;6.90;4.40;;;;;;;-141.50;100.00;63355.56;5027263;28;20099;-85
2022/06/22 03:53:40;;;;;;;8.35;4.07;;;;;;;-141.50;100.00;63355.56;5024643;28;20072;-86
2022/06/22 03:56:17;;;;;;;8.10;3.80;;;;;;;-141.50;100.00;63355.56;5022790;28;20104;-86
2022/06/22 03:58:48;;;;;;;5.57;3.55;;;;;;;-141.50;100.00;63355.56;5007016;28;20061;-85
2022/06/22 04:01:19;;;;;;;8.85;3.78;;;;;;;-141.50;100.00;63355.56;5023845;28;20076;-86
2022/06/22 04:03:48;;;;;;;5.50;3.42;;;;;;;-141.50;100.00;63355.56;5004391;28;20045;-85
2022/06/22 04:06:25;;;;;;;6.28;3.40;;;;;;;-141.50;100.00;63355.56;5024388;28;20046;-85
2022/06/22 04:08:53;;;;;;;5.78;3.25;;;;;;;-141.50;100.00;63355.56;5003401;28;20467;-85
2022/06/22 04:11:40;;;;;;;7.70;2.95;;;;;;;-141.50;100.00;63355.56;5020698;28;20492;-85
2022/06/22 04:14:19;;;;;;;5.90;2.97;;;;;;;-141.50;100.00;63355.56;5022085;28;20049;-85
2022/06/22 04:16:52;;;;;;;4.60;2.60;;;;;;;-141.50;100.00;63355.56;5029778;28;20058;-86
2022/06/22 04:19:37;;;;;;;7.40;2.80;;;;;;;-141.50;100.00;63355.56;5051410;28;20029;-86
2022/06/22 04:22:19;;;;;;;9.07;3.20;;;;;;;-141.50;100.00;63355.56;5031674;28;20123;-84
2022/06/22 04:24:50;;;;;;;7.18;2.80;;;;;;;-141.50;100.00;63355.56;5017169;28;20339;-86
2022/06/22 04:27:24;;;;;;;5.93;2.83;;;;;;;-141.50;100.00;63355.56;5017322;28;20053;-85
2022/06/22 04:30:03;;;;;;;5.85;3.08;;;;;;;-141.50;100.00;63355.56;5013557;28;20050;-84
2022/06/22 04:32:45;;;;;;;7.50;2.90;;;;;;;-141.50;100.00;63355.56;5011908;28;20076;-86
2022/06/22 04:35:24;;;;;;;5.20;2.95;;;;;;;-141.50;100.00;63355.56;5011881;28;20077;-82
2022/06/22 04:37:59;;;;;;;8.73;2.90;;;;;;;-141.50;100.00;63355.56;5012241;28;20431;-86
2022/06/22 04:40:34;;;;;;;5.63;3.08;;;;;;;-141.50;100.00;63355.56;5012897;28;20054;-85
2022/06/22 04:43:04;;;;;;;4.70;2.70;;;;;;;-141.50;100.00;63355.56;5014361;28;20101;-86
2022/06/22 04:45:34;;;;;;;5.80;2.55;;;;;;;-141.50;100.00;63355.56;5035445;28;20107;-86
2022/06/22 04:48:11;;;;;;;5.18;2.70;;;;;;;-141.50;100.00;63355.56;5034628;28;20128;-87
2022/06/22 04:50:41;;;;;;;4.68;2.80;;;;;;;-141.50;100.00;63355.56;5034423;28;20084;-88
2022/06/22 04:53:17;;;;;;;6.90;2.72;;;;;;;-141.50;100.00;63355.56;5035864;28;20045;-88
2022/06/22 04:55:46;;;;;;;5.80;2.80;;;;;;;-141.50;100.00;63355.56;5024623;28;20050;-87
2022/06/22 04:58:39;;;;;;;8.60;2.80;;;;;;;-141.50;100.00;63355.56;5012497;28;20081;-85
2022/06/22 05:01:06;;;;;;;6.57;2.53;;;;;;;-141.50;100.00;63355.56;5011216;28;20500;-85
2022/06/22 05:03:34;;;;;;;7.10;2.75;;;;;;;-141.50;100.00;63355.56;5013372;28;20058;-86
2022/06/22 05:06:10;;;;;;;6.30;2.80;;;;;;;-141.50;100.00;63355.56;5011184;28;20064;-84
2022/06/22 05:08:53;;;;;;;8.63;2.40;;;;;;;-141.50;100.00;63355.56;4995117;28;20053;-86
2022/06/22 05:11:30;;;;;;;6.05;2.40;;;;;;;-141.50;100.00;63355.56;5013152;28;20050;-84
2022/06/22 05:14:00;;;;;;;5.20;2.20;;;;;;;-141.50;100.00;63355.56;5012091;28;20061;-84
2022/06/22 05:16:32;;;;;;;11.30;2.42;;;;;;;-141.50;100.00;63355.56;5010441;28;20085;-85
2022/06/22 05:19:00;;;;;;;11.95;2.38;;;;;;;-141.50;100.00;63355.56;5010660;28;20050;-85
2022/06/22 05:21:45;;;;;;;15.27;2.58;;;;;;;-141.50;100.00;63355.56;5013776;28;20128;-85
2022/06/22 05:24:22;;;;;;;3.67;1.90;;;;;;;-141.50;100.00;63355.56;5033497;28;20053;-85
2022/06/22 05:26:52;;;;;;;4.25;2.20;;;;;;;-141.50;100.00;63355.56;5014916;28;20104;-84
2022/06/22 05:29:24;;;;;;;7.10;2.15;;;;;;;-141.50;100.00;63355.56;5034584;28;20077;-84
2022/06/22 05:31:59;;;;;;;6.03;1.80;;;;;;;-141.50;100.00;63355.56;5016890;28;20056;-85
2022/06/22 05:34:31;;;;;;;7.63;2.00;;;;;;;-141.50;100.00;63355.56;5018556;28;20053;-86
2022/06/22 05:37:08;;;;;;;5.72;2.00;;;;;;;-141.50;100.00;63355.56;5018054;28;20053;-86
2022/06/22 05:39:36;;;;;;;4.03;2.30;;;;;;;-141.50;100.00;63355.56;5036179;28;20077;-85
2022/06/22 05:42:04;;;;;;;5.63;2.33;;;;;;;-141.50;100.00;63355.56;5033686;28;20049;-87
2022/06/22 05:44:33;;;;;;;6.70;2.20;;;;;;;-141.50;100.00;63355.56;5017214;28;20087;-87
2022/06/22 05:47:00;;;;;;;3.97;1.83;;;;;;;-141.50;100.00;63355.56;5033200;28;20091;-86
2022/06/22 05:49:37;;;;;;;9.10;3.50;;;;;;;-141.50;100.00;63355.56;5035682;28;20049;-86
2022/06/22 05:52:13;;;;;;;7.57;2.38;;;;;;;-141.50;100.00;63355.56;5041244;28;20241;-84
2022/06/22 05:54:54;;;;;;;4.82;2.20;;;;;;;-141.50;100.00;63355.56;5049294;28;20049;-84
2022/06/22 05:57:45;;;;;;;6.50;2.10;;;;;;;-141.50;100.00;63355.56;5020718;28;20080;-86
2022/06/22 06:00:18;;;;;;;6.25;1.92;;;;;;;-141.50;100.00;63355.56;5033943;28;20707;-86
2022/06/22 06:03:05;;;;;;;6.97;1.92;;;;;;;-141.50;100.00;63355.56;5016766;28;20451;-86
2022/06/22 06:05:35;;;;;;;5.65;1.70;;;;;;;-141.50;100.00;63355.56;5032872;28;20116;-87
2022/06/22 06:08:08;;;;;;;7.47;1.60;;;;;;;-141.50;100.00;63355.56;5032768;28;20084;-87
2022/06/22 06:10:40;;;;;;;5.68;1.80;;;;;;;-141.50;100.00;63355.56;5032946;28;20575;-86
2022/06/22 06:13:30;;;;;;;9.85;1.80;;;;;;;-141.50;100.00;63355.56;5033393;28;20085;-85
2022/06/22 06:16:00;;;;;;;5.97;1.52;;;;;;;-141.50;100.00;63355.56;5030847;28;20053;-83
2022/06/22 06:18:35;;;;;;;8.43;1.63;;;;;;;-141.50;100.00;63355.56;5026474;28;20054;-84
2022/06/22 06:21:10;;;;;;;4.80;1.67;;;;;;;-141.50;100.00;63355.56;5030749;28;20057;-85
2022/06/22 06:23:56;;;;;;;3.97;1.63;;;;;;;-141.50;100.00;63355.56;5032596;28;20210;-85
2022/06/22 06:29:48;;;;;;;6.00;1.50;;;;;;;-141.50;100.00;63355.56;5031325;28;20045;-85
2022/06/22 06:32:26;;;;;;;5.32;1.35;;;;;;;-141.50;100.00;63355.56;5024026;28;20045;-85
2022/06/22 06:35:32;;;;;;;3.15;1.27;;;;;;;-141.50;100.00;63355.56;5033907;28;20065;-86
2022/06/22 06:38:24;;;;;;;5.38;1.30;;;;;;;-141.50;100.00;63355.56;5039996;28;20225;-85
2022/06/22 06:41:01;;;;;;;7.72;1.50;;;;;;;-141.50;100.00;63355.56;5040926;28;20057;-85
2022/06/22 06:43:53;;;;;;;6.60;1.23;;;;;;;-141.50;100.00;63355.56;5056986;28;20048;-84
2022/06/22 06:46:30;;;;;;;2.90;1.20;;;;;;;-141.50;100.00;63355.56;5055919;28;20127;-84
2022/06/22 06:49:10;;;;;;;7.03;1.42;;;;;;;-141.50;100.00;63355.56;5057025;28;20052;-85
2022/06/22 06:51:40;;;;;;;6.07;1.42;;;;;;;-141.50;100.00;63355.56;5057260;28;20033;-85
2022/06/22 06:54:13;;;;;;;4.90;1.20;;;;;;;-141.50;100.00;63355.56;5046254;28;20084;-86
2022/06/22 06:56:48;;;;;;;4.50;1.40;;;;;;;-141.50;100.00;63355.56;5029071;28;20061;-86
2022/06/22 06:59:23;;;;;;;3.58;1.38;;;;;;;-141.50;100.00;63355.56;5044262;28;20049;-85
2022/06/22 07:01:52;;;;;;;5.97;1.15;;;;;;;-141.50;100.00;63355.56;5047825;28;20034;-85
2022/06/22 07:04:30;;;;;;;3.55;1.27;;;;;;;-141.50;100.00;63355.56;5033814;28;20060;-87
2022/06/22 07:07:07;;;;;;;4.47;1.30;;;;;;;-141.50;100.00;63355.56;5025597;28;20060;-86
2022/06/22 07:09:40;;;;;;;2.75;1.42;;;;;;;-141.50;100.00;63355.56;5039237;28;20504;-86
2022/06/22 07:12:17;;;;;;;7.38;1.10;;;;;;;-141.50;100.00;63355.56;5037123;28;20530;-86
2022/06/22 07:14:46;;;;;;;3.30;1.40;;;;;;;-141.50;100.00;63355.56;5034138;28;20400;-84
2022/06/22 07:17:17;;;;;;;6.07;1.30;;;;;;;-141.50;100.00;63355.56;5033520;28;20321;-85
2022/06/22 07:19:59;;;;;;;8.02;1.33;;;;;;;-141.50;100.00;63355.56;5026757;28;20401;-84
2022/06/22 07:22:43;;;;;;;2.60;1.40;;;;;;;-141.50;100.00;63355.56;5034418;28;20496;-84
2022/06/22 07:25:30;;;;;;;3.75;1.20;;;;;;;-141.50;100.00;63355.56;5017115;28;20107;-83
2022/06/22 07:28:03;;;;;;;5.32;1.40;;;;;;;-141.50;100.00;63355.56;5036071;28;20077;-82
2022/06/22 07:30:35;;;;;;;2.83;1.20;;;;;;;-141.50;100.00;63355.56;5035429;28;20085;-85
2022/06/22 07:33:07;;;;;;;3.15;1.30;;;;;;;-141.50;100.00;63355.56;5036910;28;20099;-85
2022/06/22 07:36:04;;;;;;;4.55;1.40;;;;;;;-141.50;100.00;63355.56;5036646;28;20140;-85
2022/06/22 07:38:49;;;;;;;5.78;1.38;;;;;;;-141.50;100.00;63355.56;5021174;28;20092;-86
2022/06/22 07:41:18;;;;;;;6.28;1.52;;;;;;;-141.50;100.00;63355.56;5021394;28;20059;-84
2022/06/22 07:44:14;;;;;;;4.47;1.20;;;;;;;-141.50;100.00;63355.56;5034791;28;20049;-83
2022/06/22 07:46:49;;;;;;;7.33;1.10;;;;;;;-141.50;100.00;63355.56;5030924;28;20080;-85
2022/06/22 07:49:18;;;;;;;4.55;1.48;;;;;;;-141.50;100.00;63355.56;5035170;28;20424;-86
2022/06/22 07:51:51;;;;;;;3.17;1.38;;;;;;;-141.50;100.00;63355.56;5036757;28;20045;-84
2022/06/22 07:54:38;;;;;;;3.55;1.42;;;;;;;-141.50;100.00;63355.56;5036953;28;20115;-84
2022/06/22 07:57:40;;;;;;;2.47;1.20;;;;;;;-141.50;100.00;63355.56;5019693;28;20061;-84
2022/06/22 08:00:14;;;;;;;5.72;1.45;;;;;;;-141.50;100.00;63355.56;5032537;28;20088;-84
2022/06/22 08:02:53;;;;;;;5.43;1.40;;;;;;;-141.50;100.00;63355.56;5039196;28;20095;-84
2022/06/22 08:05:28;;;;;;;5.88;1.30;;;;;;;-141.50;100.00;63355.56;5036696;28;20141;-87
2022/06/22 08:08:07;;;;;;;5.80;1.35;;;;;;;-141.50;100.00;63355.56;5020673;28;20057;-84
2022/06/22 08:10:42;;;;;;;6.18;1.40;;;;;;;-141.50;100.00;63355.56;5041343;28;20065;-83
2022/06/22 08:13:17;;;;;;;4.30;1.30;;;;;;;-141.50;100.00;63355.56;5032344;28;20060;-81
2022/06/22 08:15:49;;;;;;;4.43;1.48;;;;;;;-141.50;100.00;63355.56;5034048;28;20049;-83
2022/06/22 08:18:18;;;;;;;9.38;1.23;;;;;;;-141.50;100.00;63355.56;5030991;28;20418;-84
2022/06/22 08:20:49;;;;;;;5.88;1.48;;;;;;;-141.50;100.00;63355.56;5029477;28;20049;-83
2022/06/22 08:23:26;;;;;;;2.53;1.00;;;;;;;-141.50;100.00;63355.56;5034935;28;20067;-85
2022/06/22 08:26:00;;;;;;;4.03;1.60;;;;;;;-141.50;100.00;63355.56;5020504;28;20061;-85
2022/06/22 08:28:29;;;;;;;2.47;1.40;;;;;;;-141.50;100.00;63355.56;5035074;28;20053;-84
2022/06/22 08:30:57;;;;;;;8.38;1.60;;;;;;;-141.50;100.00;63355.56;5035063;28;20050;-85
2022/06/22 08:33:30;;;;;;;2.75;1.23;;;;;;;-141.50;100.00;63355.56;5017810;28;20126;-85
2022/06/22 08:36:22;;;;;;;3.33;1.30;;;;;;;-141.50;100.00;63355.56;5032763;28;20054;-83
2022/06/22 08:38:57;;;;;;;5.03;1.50;;;;;;;-141.50;100.00;63355.56;5033204;28;20458;-85
2022/06/22 08:41:31;;;;;;;5.50;1.70;;;;;;;-141.50;100.00;63355.56;5034245;28;20053;-84
2022/06/22 08:44:21;;;;;;;3.95;1.60;;;;;;;-141.50;100.00;63355.56;5032794;28;20046;-82
2022/06/22 08:46:53;;;;;;;3.88;1.33;;;;;;;-141.50;100.00;63355.56;5018862;28;20069;-87
2022/06/22 08:49:32;;;;;;;2.75;1.40;;;;;;;-141.50;100.00;63355.56;5035794;28;20057;-84
2022/06/22 08:52:16;;;;;;;8.75;1.35;;;;;;;-141.50;100.00;63355.56;5039595;28;20046;-84
2022/06/22 08:55:12;;;;;;;6.60;1.40;;;;;;;-141.50;100.00;63355.56;5042628;28;20122;-84
2022/06/22 08:57:40;;;;;;;;;;;;;;;-141.50;100.00;63355.56;5038279;28;20049;-84
2022/06/22 09:00:17;;;;;;;4.65;1.30;;;;;;;-141.50;100.00;63355.56;5036847;28;19932;-87
2022/06/22 09:03:08;;;;;;;2.78;1.20;;;;;;;-141.50;100.00;63355.56;5020838;28;20557;-85
2022/06/22 09:05:58;;;;;;;2.80;1.33;;;;;;;-141.50;100.00;63355.56;5037770;28;20092;-84
2022/06/22 09:08:49;;;;;;;4.15;1.40;;;;;;;-141.50;100.00;63355.56;5019120;28;20049;-83
2022/06/22 09:11:49;;;;;;;4.90;1.40;;;;;;;-141.50;100.00;63355.56;5035420;28;20081;-84
2022/06/22 09:14:40;;;;;;;6.05;1.42;;;;;;;-141.50;100.00;63355.56;5018796;28;20053;-81
2022/06/22 09:17:35;;;;;;;5.00;1.58;;;;;;;-141.50;100.00;63355.56;5030230;28;20123;-85
2022/06/22 09:20:33;;;;;;;4.88;1.48;;;;;;;-141.50;100.00;63355.56;5023081;28;20045;-84
2022/06/22 09:23:11;;;;;;;2.80;1.33;;;;;;;-141.50;100.00;63355.56;5049185;28;20079;-84
2022/06/22 09:25:55;;;;;;;4.55;1.63;;;;;;;-141.50;100.00;63355.56;5050170;28;20467;-86
2022/06/22 09:28:44;;;;;;;4.28;1.23;;;;;;;-141.50;100.00;63355.56;5040236;28;20427;-85
2022/06/22 09:31:33;;;;;;;2.78;1.40;;;;;;;-141.50;100.00;63355.56;5036945;28;20060;-86
2022/06/22 09:34:22;;;;;;;4.95;1.40;;;;;;;-141.50;100.00;63355.56;5040000;28;20072;-85
2022/06/22 09:37:16;;;;;;;4.97;1.40;;;;;;;-141.50;100.00;63355.56;5039959;28;20054;-84
2022/06/22 09:40:02;;;;;;;6.15;1.38;;;;;;;-141.50;100.00;63355.56;5025452;28;20053;-84
2022/06/22 09:43:00;;;;;;;5.15;1.40;;;;;;;-141.50;100.00;63355.56;5043539;28;20046;-85
2022/06/22 09:45:39;;;;;;;3.25;1.40;;;;;;;-141.50;100.00;63355.56;5003602;28;20349;-87
2022/06/22 09:48:24;;;;;;;2.25;1.13;;;;;;;-141.50;100.00;63355.56;5038555;28;20045;-87
2022/06/22 09:51:00;;;;;;;6.18;1.40;;;;;;;-141.50;100.00;63355.56;5037606;28;20080;-87
2022/06/22 09:53:39;;;;;;;7.03;1.52;;;;;;;-141.50;100.00;63355.56;5036456;28;20072;-86
2022/06/22 09:56:35;;;;;;;1.73;1.00;;;;;;;-141.50;100.00;63355.56;5035778;28;20049;-85
2022/06/22 09:59:31;;;;;;;5.00;1.27;;;;;;;-141.50;100.00;63355.56;5037564;28;20041;-83
2022/06/22 10:02:04;;;;;;;2.17;1.40;;;;;;;-141.50;100.00;63355.56;5036247;28;20060;-84
2022/06/22 10:04:36;;;;;;;4.15;1.38;;;;;;;-141.50;100.00;63355.56;5036804;28;20538;-86
2022/06/22 10:07:40;;;;;;;5.05;1.30;;;;;;;-141.50;100.00;63355.56;5037051;28;20075;-88
2022/06/22 10:10:41;;;;;;;5.20;1.23;;;;;;;-141.50;100.00;63355.56;5035939;28;20526;-84
2022/06/22 10:13:34;;;;;;;4.90;1.10;;;;;;;-141.50;100.00;63355.56;5018059;28;20053;-86
2022/06/22 10:16:07;;;;;;;3.65;1.38;;;;;;;-141.50;100.00;63355.56;5030083;28;20156;-84
2022/06/22 10:18:52;;;;;;;3.72;1.40;;;;;;;-141.50;100.00;63355.56;5035609;28;20064;-84
2022/06/22 10:21:40;;;;;;;2.50;1.33;;;;;;;-141.50;100.00;63355.56;5030717;28;20054;-82
2022/06/22 10:24:30;;;;;;;3.08;1.30;;;;;;;-141.50;100.00;63355.56;5012477;28;20237;-83
2022/06/22 10:27:07;;;;;;;2.25;1.20;;;;;;;-141.50;100.00;63355.56;5008693;28;20054;-82
2022/06/22 10:29:36;;;;;;;3.25;1.60;;;;;;;-141.50;100.00;63355.56;5028426;28;20478;-83
2022/06/22 10:32:23;;;;;;;2.80;1.13;;;;;;;-141.50;100.00;63355.56;5026659;28;20100;-82
2022/06/22 10:35:05;;;;;;;2.15;1.35;;;;;;;-141.50;100.00;63355.56;5025763;28;20052;-87
2022/06/22 10:37:49;;;;;;;2.25;1.20;;;;;;;-141.50;100.00;63355.56;5028141;28;20524;-86
2022/06/22 10:45:08;;;;;;;4.97;1.33;;;;;;;-141.50;100.00;63355.56;5011258;28;20046;-82
2022/06/22 10:46:28;;;;;;;4.85;1.40;;;;;;;-141.50;100.00;63355.56;5015953;28;20073;-83
2022/06/22 10:49:01;;;;;;;6.18;1.17;;;;;;;-141.50;100.00;63355.56;5022049;28;20045;-82
2022/06/22 10:51:36;;;;;;;3.15;1.10;;;;;;;-141.50;100.00;63355.56;5020036;28;20128;-83
2022/06/22 10:54:28;;;;;;;5.05;1.30;;;;;;;-141.50;100.00;63355.56;5024829;28;20050;-82
2022/06/22 10:57:12;;;;;;;3.33;1.70;;;;;;;-141.50;100.00;63355.56;5001352;28;20103;-83
2022/06/22 10:59:39;;;;;;;2.90;1.40;;;;;;;-141.50;100.00;63355.56;4999531;28;20054;-84
2022/06/22 11:03:02;;;;;;;3.65;1.40;;;;;;;-141.50;100.00;63355.56;5016402;28;20053;-85
2022/06/22 11:05:57;;;;;;;4.05;1.40;;;;;;;-141.50;100.00;63355.56;5017468;28;20046;-84
2022/06/22 11:08:57;;;;;;;2.25;1.30;;;;;;;-141.50;100.00;63355.56;5016323;28;20081;-85
2022/06/22 11:11:56;;;;;;;2.35;1.30;;;;;;;-141.50;100.00;63355.56;5015561;28;20046;-84
2022/06/22 11:14:29;;;;;;;4.35;1.50;;;;;;;-141.50;100.00;63355.56;5013965;28;20065;-82
2022/06/22 11:17:07;;;;;;;5.30;1.23;;;;;;;-141.50;100.00;63355.56;5010515;28;20475;-81
2022/06/22 11:20:03;;;;;;;3.67;1.25;;;;;;;-141.50;100.00;63355.56;5021803;28;20225;-83
2022/06/22 11:22:41;;;;;;;6.22;1.48;;;;;;;-141.50;100.00;63355.56;4996256;28;20054;-87
2022/06/22 11:31:34;;;;;;;4.55;1.23;;;;;;;-141.50;100.00;63355.56;5018490;28;20072;-85
2022/06/22 11:34:28;;;;;;;4.38;1.50;;;;;;;-141.50;100.00;63355.56;5019206;28;20050;-83
2022/06/22 11:37:11;;;;;;;7.15;1.50;;;;;;;-141.50;100.00;63355.56;5019068;28;20056;-84
2022/06/22 11:40:17;;;;;;;4.68;1.30;;;;;;;-141.50;100.00;63355.56;5016394;28;20144;-82
2022/06/22 11:42:53;;;;;;;4.97;1.35;;;;;;;-141.50;100.00;63355.56;5018322;28;20049;-82
2022/06/22 11:45:51;;;;;;;3.05;1.50;;;;;;;-141.50;100.00;63355.56;5000708;28;20050;-84
2022/06/22 11:48:56;;;;;;;3.60;1.42;;;;;;;-141.50;100.00;63355.56;5017674;28;20129;-82
2022/06/22 11:51:31;;;;;;;3.63;1.40;;;;;;;-141.50;100.00;63355.56;5015866;28;20049;-82
2022/06/22 11:54:07;;;;;;;2.70;1.55;;;;;;;-141.50;100.00;63355.56;5029130;28;20100;-83
2022/06/22 11:56:50;;;;;;;3.17;1.58;;;;;;;-141.50;100.00;63355.56;5036441;28;20038;-84
2022/06/22 11:59:20;;;;;;;4.18;1.40;;;;;;;-141.50;100.00;63355.56;5036217;28;20065;-83
2022/06/22 12:09:50;;;;;;;1.83;1.30;;;;;;;-141.50;100.00;63355.56;5018061;28;20045;-86
2022/06/22 12:13:13;;;;;;;3.97;1.50;;;;;;;-141.50;100.00;63355.56;5016344;28;20099;-82
2022/06/22 12:15:52;;;;;;;3.55;1.58;;;;;;;-141.50;100.00;63355.56;5010455;28;20297;-81
2022/06/22 12:18:24;;;;;;;5.53;1.60;;;;;;;-141.50;100.00;63355.56;5022183;28;20053;-81
2022/06/22 12:21:15;;;;;;;5.68;1.40;;;;;;;-141.50;100.00;63355.56;5016725;28;20057;-84
2022/06/22 12:24:09;;;;;;;3.10;1.60;;;;;;;-141.50;100.00;63355.56;5017235;28;20174;-84
2022/06/22 12:27:01;;;;;;;4.22;1.50;;;;;;;-141.50;100.00;63355.56;5016808;28;20054;-84
2022/06/22 12:29:54;;;;;;;7.65;1.55;;;;;;;-141.50;100.00;63355.56;5018592;28;20416;-81
2022/06/22 12:32:33;;;;;;;5.93;1.30;;;;;;;-141.50;100.00;63355.56;5018097;28;20092;-84